Time;durP1;ratioP1;P1;durP2;ratioP2;P2;SDS_P1;SDS_P2;PMS_P1;PMS_P2;Temp;Humidity;BMP_temperature;BMP_pressure;BME280_temperature;BME280_humidity;BME280_pressure;Samples;Min_cycle;Max_cycle;Signal;HPM_P1;HPM_P2
2021/12/02 00:01:05;;;;;;;3.67;1.80;;;5.20;99.90;;;;;;5091932;28;20215;-58
2021/12/02 00:03:30;;;;;;;2.05;1.70;;;5.40;99.90;;;;;;5091950;28;20213;-59
2021/12/02 00:05:56;;;;;;;3.80;1.77;;;5.40;99.90;;;;;;5107769;28;20575;-59
2021/12/02 00:08:22;;;;;;;2.33;1.40;;;5.30;99.90;;;;;;5091579;28;20237;-58
2021/12/02 00:10:47;;;;;;;2.58;1.40;;;5.30;99.90;;;;;;5092019;28;20208;-57
2021/12/02 00:13:13;;;;;;;4.43;1.67;;;5.30;99.90;;;;;;5091891;28;20199;-58
2021/12/02 00:21:15;;;;;;;3.95;1.60;;;5.30;99.90;;;;;;5091638;28;20665;-58
2021/12/02 00:24:06;;;;;;;4.32;1.67;;;5.30;99.90;;;;;;5090546;28;20203;-58
2021/12/02 00:26:35;;;;;;;2.22;1.40;;;5.40;99.90;;;;;;5091722;28;20192;-58
2021/12/02 00:29:03;;;;;;;2.13;1.30;;;5.40;99.90;;;;;;5096300;28;20538;-58
2021/12/02 00:31:32;;;;;;;1.88;1.50;;;5.40;99.90;;;;;;5098864;28;20197;-58
2021/12/02 00:34:06;;;;;;;3.08;1.60;;;5.50;99.90;;;;;;5091896;28;20172;-58
2021/12/02 00:36:34;;;;;;;4.15;1.80;;;5.50;99.90;;;;;;5091650;28;20190;-58
2021/12/02 00:39:08;;;;;;;3.00;1.25;;;5.50;99.90;;;;;;5091899;28;20195;-57
2021/12/02 00:41:34;;;;;;;2.25;1.55;;;5.60;99.90;;;;;;5095498;28;20219;-58
2021/12/02 00:44:00;;;;;;;1.90;1.38;;;5.60;99.90;;;;;;5095687;28;20313;-57
2021/12/02 00:46:29;;;;;;;2.35;1.58;;;5.60;99.90;;;;;;5095560;28;20258;-57
2021/12/02 00:48:57;;;;;;;5.03;1.80;;;5.60;99.90;;;;;;5095512;28;20160;-58
2021/12/02 00:51:26;;;;;;;1.67;1.50;;;5.60;99.90;;;;;;5095309;28;20175;-57
2021/12/02 00:53:54;;;;;;;3.25;1.65;;;5.60;99.90;;;;;;5095281;28;20168;-57
2021/12/02 00:56:24;;;;;;;4.25;1.45;;;5.60;99.90;;;;;;5095285;28;20195;-56
2021/12/02 00:58:51;;;;;;;4.53;1.60;;;5.60;99.90;;;;;;5095394;28;20165;-57
2021/12/02 01:01:19;;;;;;;2.40;1.50;;;5.50;99.90;;;;;;5095237;28;20222;-57
2021/12/02 01:03:46;;;;;;;3.58;1.80;;;5.50;99.90;;;;;;5095001;28;20180;-57
2021/12/02 01:06:12;;;;;;;4.40;1.77;;;5.60;99.90;;;;;;5095141;28;20180;-57
2021/12/02 01:08:39;;;;;;;3.55;1.50;;;5.50;99.90;;;;;;5095123;28;20172;-58
2021/12/02 01:11:06;;;;;;;2.85;1.60;;;5.50;99.90;;;;;;5095166;28;20176;-57
2021/12/02 01:13:32;;;;;;;2.65;1.50;;;5.50;99.90;;;;;;5094988;28;20647;-57
2021/12/02 01:15:58;;;;;;;2.78;1.65;;;5.50;99.90;;;;;;5095113;28;20179;-58
2021/12/02 01:18:24;;;;;;;1.52;1.42;;;5.50;99.90;;;;;;5094800;28;20720;-58
2021/12/02 01:20:51;;;;;;;2.90;1.60;;;5.40;99.90;;;;;;5094849;28;20207;-58
2021/12/02 01:23:17;;;;;;;2.38;1.90;;;5.40;99.90;;;;;;5094972;28;20176;-58
2021/12/02 01:25:52;;;;;;;3.20;1.55;;;5.40;99.90;;;;;;5094703;28;20187;-57
2021/12/02 01:28:18;;;;;;;3.17;1.60;;;5.40;99.90;;;;;;5094946;28;20179;-57
2021/12/02 01:30:45;;;;;;;3.90;1.65;;;5.40;99.90;;;;;;5094498;28;20200;-58
2021/12/02 01:33:15;;;;;;;1.40;1.30;;;5.40;99.90;;;;;;5094823;28;20181;-58
2021/12/02 01:35:43;;;;;;;2.90;1.33;;;5.30;99.90;;;;;;5094517;28;20187;-57
2021/12/02 01:38:09;;;;;;;2.67;1.27;;;5.40;99.90;;;;;;5094602;28;20229;-58
2021/12/02 01:40:35;;;;;;;3.38;1.55;;;5.50;99.90;;;;;;5094386;28;20212;-58
2021/12/02 01:43:01;;;;;;;3.10;1.27;;;5.50;99.90;;;;;;5094452;28;20172;-58
2021/12/02 01:45:29;;;;;;;3.53;1.23;;;5.50;99.90;;;;;;5094427;28;20199;-58
2021/12/02 01:47:57;;;;;;;1.65;1.02;;;5.50;99.90;;;;;;5094452;28;20178;-58
2021/12/02 01:50:25;;;;;;;4.45;1.70;;;5.50;99.90;;;;;;5093614;28;20654;-58
2021/12/02 01:52:59;;;;;;;5.45;1.40;;;5.60;99.90;;;;;;5093784;28;20188;-58
2021/12/02 01:55:26;;;;;;;1.77;1.48;;;5.50;99.90;;;;;;5093952;28;20228;-58
2021/12/02 01:58:03;;;;;;;3.90;1.55;;;5.50;99.90;;;;;;5094132;28;20635;-58
2021/12/02 02:00:33;;;;;;;1.35;1.25;;;5.50;99.90;;;;;;5094065;28;20304;-57
2021/12/02 02:03:01;;;;;;;3.30;1.60;;;5.50;99.90;;;;;;5094289;28;20176;-58
2021/12/02 02:05:27;;;;;;;1.73;1.33;;;5.60;99.90;;;;;;5094070;28;20168;-57
2021/12/02 02:08:16;;;;;;;4.57;1.63;;;5.60;99.90;;;;;;5094115;28;20191;-58
2021/12/02 02:10:43;;;;;;;3.53;1.30;;;5.60;99.90;;;;;;5093961;28;20654;-58
2021/12/02 02:13:10;;;;;;;4.85;1.58;;;5.60;99.90;;;;;;5093993;28;20168;-59
2021/12/02 02:15:44;;;;;;;4.85;1.50;;;5.60;99.90;;;;;;5093861;28;20219;-58
2021/12/02 02:18:25;;;;;;;2.92;1.60;;;5.60;99.90;;;;;;5094009;28;20184;-58
2021/12/02 02:21:09;;;;;;;2.17;1.60;;;5.70;99.90;;;;;;5093894;28;20239;-58
2021/12/02 02:23:39;;;;;;;2.38;1.48;;;5.70;99.90;;;;;;5093556;28;20533;-58
2021/12/02 02:26:07;;;;;;;2.90;1.88;;;5.70;99.90;;;;;;5093567;28;20539;-58
2021/12/02 02:28:33;;;;;;;3.33;1.80;;;5.70;99.90;;;;;;5093534;28;20191;-58
2021/12/02 02:30:58;;;;;;;3.53;1.60;;;5.70;99.90;;;;;;5093702;28;20183;-58
2021/12/02 02:33:25;;;;;;;4.43;1.40;;;5.70;99.90;;;;;;5093504;28;20176;-58
2021/12/02 02:35:51;;;;;;;1.65;1.23;;;5.70;99.90;;;;;;5093603;28;20176;-58
2021/12/02 02:38:16;;;;;;;2.33;1.17;;;5.70;99.90;;;;;;5093366;28;20263;-57
2021/12/02 02:40:45;;;;;;;2.80;1.42;;;5.70;99.90;;;;;;5093321;28;20199;-57
2021/12/02 02:43:19;;;;;;;1.65;1.55;;;5.70;99.90;;;;;;5093360;28;20188;-57
2021/12/02 02:45:50;;;;;;;2.70;1.60;;;5.60;99.90;;;;;;5093320;28;20210;-57
2021/12/02 02:48:16;;;;;;;2.45;1.33;;;5.60;99.90;;;;;;5091698;28;20658;-57
2021/12/02 02:50:42;;;;;;;2.70;1.20;;;5.60;99.90;;;;;;5071750;28;20177;-58
2021/12/02 02:53:13;;;;;;;1.35;1.10;;;5.60;99.90;;;;;;5072946;28;20689;-58
2021/12/02 02:55:40;;;;;;;4.45;1.40;;;5.60;99.90;;;;;;5072743;28;20224;-57
2021/12/02 02:58:19;;;;;;;1.30;1.20;;;5.50;99.90;;;;;;5072716;28;20582;-58
2021/12/02 03:00:58;;;;;;;4.60;1.38;;;5.50;99.90;;;;;;5072597;28;20216;-57
2021/12/02 03:03:36;;;;;;;3.85;1.20;;;5.50;99.90;;;;;;5072659;28;20183;-58
2021/12/02 03:06:52;;;;;;;1.40;1.20;;;5.50;99.90;;;;;;5072600;28;20636;-58
2021/12/02 03:08:57;;;;;;;2.90;1.30;;;5.50;99.90;;;;;;5069443;28;20199;-57
2021/12/02 03:11:26;;;;;;;4.15;1.42;;;5.50;99.90;;;;;;5072523;28;20200;-58
2021/12/02 03:13:54;;;;;;;4.57;1.30;;;5.50;99.90;;;;;;5072415;28;20659;-57
2021/12/02 03:19:04;;;;;;;2.05;1.30;;;5.50;99.90;;;;;;5072647;28;20205;-57
2021/12/02 03:21:29;;;;;;;3.22;1.33;;;5.50;99.90;;;;;;5072338;28;20221;-57
2021/12/02 03:24:00;;;;;;;3.67;1.10;;;5.50;99.90;;;;;;5072099;28;20185;-57
2021/12/02 03:26:31;;;;;;;1.60;1.23;;;5.50;99.90;;;;;;5072252;28;20184;-57
2021/12/02 03:28:57;;;;;;;4.35;1.30;;;5.40;99.90;;;;;;5072265;28;20179;-57
2021/12/02 03:31:23;;;;;;;3.78;1.20;;;5.40;99.90;;;;;;5100979;28;20184;-57
2021/12/02 03:33:49;;;;;;;2.63;1.10;;;5.40;99.90;;;;;;5092559;28;20258;-57
2021/12/02 03:36:16;;;;;;;1.55;1.45;;;5.40;99.90;;;;;;5092214;28;20188;-57
2021/12/02 03:38:42;;;;;;;3.20;1.25;;;5.40;99.90;;;;;;5092258;28;20180;-57
2021/12/02 03:41:08;;;;;;;3.65;1.20;;;5.40;99.90;;;;;;5092278;28;20203;-57
2021/12/02 03:43:39;;;;;;;4.78;1.38;;;5.40;99.90;;;;;;5092115;28;20172;-57
2021/12/02 03:46:05;;;;;;;3.78;1.27;;;5.40;99.90;;;;;;5092141;28;20179;-57
2021/12/02 03:48:31;;;;;;;4.70;1.50;;;5.30;99.90;;;;;;5091960;28;20593;-57
2021/12/02 03:50:58;;;;;;;3.63;1.20;;;5.30;99.90;;;;;;5091908;28;20724;-57
2021/12/02 03:53:24;;;;;;;1.77;1.02;;;5.30;99.90;;;;;;5091831;28;20176;-58
2021/12/02 03:56:01;;;;;;;5.70;1.23;;;5.30;99.90;;;;;;5092035;28;20235;-57
2021/12/02 03:58:27;;;;;;;3.85;1.42;;;5.30;99.90;;;;;;5068829;28;20179;-57
2021/12/02 04:00:52;;;;;;;3.55;1.17;;;5.40;99.90;;;;;;5091913;28;20257;-57
2021/12/02 04:03:18;;;;;;;1.25;1.15;;;5.40;99.90;;;;;;5092006;28;20200;-57
2021/12/02 04:05:43;;;;;;;5.50;1.70;;;5.40;99.90;;;;;;5091954;28;20176;-57
2021/12/02 04:08:11;;;;;;;2.50;1.38;;;5.40;99.90;;;;;;5092230;28;20639;-57
2021/12/02 04:10:37;;;;;;;4.32;1.45;;;5.40;99.90;;;;;;5091558;28;20533;-57
2021/12/02 04:15:35;;;;;;;2.50;1.55;;;5.40;99.90;;;;;;5091429;28;20168;-57
2021/12/02 04:18:01;;;;;;;3.28;1.70;;;5.40;99.90;;;;;;5091886;28;20183;-57
2021/12/02 04:20:26;;;;;;;3.95;1.48;;;5.40;99.90;;;;;;5091774;28;20204;-57
2021/12/02 04:22:54;;;;;;;2.10;1.60;;;5.40;99.90;;;;;;5091783;28;20180;-57
2021/12/02 04:25:20;;;;;;;4.15;1.75;;;5.40;99.90;;;;;;5091747;28;20510;-57
2021/12/02 04:27:48;;;;;;;4.53;1.67;;;5.40;99.90;;;;;;5091766;28;20691;-57
2021/12/02 04:30:17;;;;;;;5.47;1.70;;;5.40;99.90;;;;;;5091731;28;20175;-57
2021/12/02 04:32:43;;;;;;;3.20;1.60;;;5.40;99.90;;;;;;5091644;28;20255;-57
2021/12/02 04:35:09;;;;;;;5.20;2.05;;;5.40;99.90;;;;;;5091824;28;20266;-57
2021/12/02 04:37:35;;;;;;;3.00;1.63;;;5.40;99.90;;;;;;5091614;28;20184;-57
2021/12/02 04:40:01;;;;;;;2.50;1.45;;;5.40;99.90;;;;;;5091646;28;20177;-57
2021/12/02 04:42:27;;;;;;;2.88;1.45;;;5.50;99.90;;;;;;5091605;28;20724;-57
2021/12/02 04:44:52;;;;;;;4.70;1.60;;;5.50;99.90;;;;;;5098779;28;20172;-57
2021/12/02 04:47:18;;;;;;;1.33;1.20;;;5.50;99.90;;;;;;5111957;28;20171;-57
2021/12/02 04:49:44;;;;;;;6.47;1.45;;;5.40;99.90;;;;;;5099602;28;20186;-57
2021/12/02 04:52:10;;;;;;;1.92;1.50;;;5.40;99.90;;;;;;5091605;28;20557;-58
2021/12/02 04:54:36;;;;;;;7.60;1.50;;;5.40;99.90;;;;;;5091125;28;20261;-57
2021/12/02 04:57:02;;;;;;;3.03;1.55;;;5.40;99.90;;;;;;5091809;28;20180;-57
2021/12/02 04:59:27;;;;;;;3.88;1.80;;;5.40;99.90;;;;;;5091373;28;20719;-57
2021/12/02 05:01:53;;;;;;;5.15;1.67;;;5.40;99.90;;;;;;5091460;28;20697;-57
2021/12/02 05:04:18;;;;;;;1.67;1.38;;;5.40;99.90;;;;;;5091424;28;20176;-58
2021/12/02 05:06:44;;;;;;;4.20;1.63;;;5.40;99.90;;;;;;5091350;28;20164;-57
2021/12/02 05:09:10;;;;;;;2.97;1.98;;;5.30;99.90;;;;;;5102906;28;20188;-58
2021/12/02 05:11:38;;;;;;;5.95;1.95;;;5.30;99.90;;;;;;5110200;28;20539;-58
2021/12/02 05:14:03;;;;;;;2.50;1.60;;;5.20;99.90;;;;;;5091428;28;20184;-60
2021/12/02 05:16:29;;;;;;;5.70;2.00;;;5.20;99.90;;;;;;5091209;28;20521;-58
2021/12/02 05:18:54;;;;;;;1.90;1.55;;;5.20;99.90;;;;;;5091221;28;20176;-62
2021/12/02 05:21:20;;;;;;;4.10;1.73;;;5.20;99.90;;;;;;5091214;28;20211;-58
2021/12/02 05:23:45;;;;;;;4.10;1.52;;;5.20;99.90;;;;;;5091296;28;20536;-58
2021/12/02 05:29:18;;;;;;;3.65;2.10;;;5.20;99.90;;;;;;5079239;28;20176;-61
2021/12/02 05:31:43;;;;;;;3.22;1.67;;;5.20;99.90;;;;;;5094660;28;20271;-61
2021/12/02 05:34:09;;;;;;;4.90;1.88;;;5.20;99.90;;;;;;5094781;28;20172;-61
2021/12/02 05:36:34;;;;;;;3.10;1.58;;;5.20;99.90;;;;;;5094549;28;20172;-59
2021/12/02 05:39:00;;;;;;;7.53;2.20;;;5.20;99.90;;;;;;5094499;28;20172;-60
2021/12/02 05:41:25;;;;;;;3.88;1.90;;;5.20;99.90;;;;;;5093051;28;20265;-62
2021/12/02 05:43:51;;;;;;;5.22;1.92;;;5.20;99.90;;;;;;5094413;28;20176;-62
2021/12/02 05:46:16;;;;;;;6.70;1.92;;;5.20;99.90;;;;;;5094340;28;20190;-62
2021/12/02 05:48:42;;;;;;;4.05;1.95;;;5.10;99.90;;;;;;5094340;28;20191;-62
2021/12/02 05:51:08;;;;;;;5.13;1.85;;;5.10;99.90;;;;;;5094507;28;20176;-62
2021/12/02 05:53:33;;;;;;;6.90;2.20;;;5.10;99.90;;;;;;5094365;28;20184;-62
2021/12/02 05:55:59;;;;;;;6.97;1.85;;;5.10;99.90;;;;;;5094108;28;20228;-62
2021/12/02 05:58:24;;;;;;;4.32;1.80;;;5.10;99.90;;;;;;5094172;28;20237;-62
2021/12/02 06:00:50;;;;;;;2.08;1.88;;;5.10;99.90;;;;;;5094108;28;20333;-62
2021/12/02 06:03:16;;;;;;;2.63;1.83;;;5.10;99.90;;;;;;5094243;28;20172;-62
2021/12/02 06:05:44;;;;;;;4.45;2.33;;;5.10;99.90;;;;;;5093893;28;20269;-62
2021/12/02 06:08:10;;;;;;;9.88;3.03;;;5.00;99.90;;;;;;5094084;28;20643;-62
2021/12/02 06:10:35;;;;;;;5.55;2.40;;;5.00;99.90;;;;;;5093958;28;20176;-62
2021/12/02 06:13:01;;;;;;;8.05;2.67;;;5.00;99.90;;;;;;5094014;28;20180;-62
2021/12/02 06:15:26;;;;;;;7.65;2.83;;;5.00;99.90;;;;;;5094031;28;20180;-61
2021/12/02 06:17:52;;;;;;;6.15;2.42;;;4.90;99.90;;;;;;5093908;28;20191;-62
2021/12/02 06:20:18;;;;;;;7.60;3.05;;;4.90;99.90;;;;;;5093963;28;20177;-62
2021/12/02 06:22:45;;;;;;;6.63;2.90;;;4.90;99.90;;;;;;5093707;28;20184;-62
2021/12/02 06:27:41;;;;;;;3.72;2.35;;;4.90;99.90;;;;;;5093673;28;20594;-61
2021/12/02 06:30:07;;;;;;;5.68;2.13;;;4.90;99.90;;;;;;5093690;28;20198;-61
2021/12/02 06:32:33;;;;;;;4.90;2.70;;;4.90;99.90;;;;;;5093527;28;20223;-61
2021/12/02 06:34:58;;;;;;;4.70;2.40;;;4.90;99.90;;;;;;5093646;28;20175;-61
2021/12/02 06:37:24;;;;;;;5.05;2.30;;;4.80;99.90;;;;;;5093076;28;20172;-62
2021/12/02 06:39:50;;;;;;;7.32;2.05;;;4.80;99.90;;;;;;5093304;28;20183;-62
2021/12/02 06:42:16;;;;;;;7.28;2.05;;;4.80;99.90;;;;;;5093353;28;20223;-62
2021/12/02 06:44:42;;;;;;;2.97;1.98;;;4.80;99.90;;;;;;5093060;28;20180;-61
2021/12/02 06:47:08;;;;;;;4.00;2.22;;;4.80;99.90;;;;;;5093340;28;20554;-62
2021/12/02 06:49:34;;;;;;;5.82;1.90;;;4.80;99.90;;;;;;5093227;28;20183;-62
2021/12/02 06:52:00;;;;;;;3.97;1.92;;;4.90;99.90;;;;;;5093054;28;20180;-62
2021/12/02 06:54:26;;;;;;;3.70;2.10;;;4.90;99.90;;;;;;5092894;28;20309;-61
2021/12/02 06:56:52;;;;;;;3.13;2.30;;;4.90;99.90;;;;;;5093115;28;20223;-62
2021/12/02 06:59:19;;;;;;;3.80;2.00;;;4.90;99.90;;;;;;5093113;28;20172;-61
2021/12/02 07:01:45;;;;;;;3.05;2.08;;;4.90;99.90;;;;;;5092904;28;20219;-61
2021/12/02 07:04:11;;;;;;;2.50;1.83;;;5.00;99.90;;;;;;5093085;28;20199;-62
2021/12/02 07:06:38;;;;;;;1.40;1.30;;;5.00;99.90;;;;;;5092794;28;20635;-62
2021/12/02 07:09:05;;;;;;;5.45;1.92;;;5.00;99.90;;;;;;5092942;28;20255;-62
2021/12/02 07:11:31;;;;;;;4.38;1.95;;;5.00;99.90;;;;;;5092804;28;20312;-62
2021/12/02 07:14:02;;;;;;;3.17;2.00;;;5.00;99.90;;;;;;5092838;28;20180;-62
2021/12/02 07:16:27;;;;;;;5.38;1.98;;;5.00;99.90;;;;;;5092754;28;20271;-62
2021/12/02 07:18:56;;;;;;;5.65;2.08;;;5.00;99.90;;;;;;5092782;28;20211;-62
2021/12/02 07:21:23;;;;;;;5.10;2.35;;;5.00;99.90;;;;;;5092540;28;20239;-62
2021/12/02 07:23:49;;;;;;;4.35;2.10;;;5.00;99.90;;;;;;5092639;28;20282;-61
2021/12/02 07:26:15;;;;;;;5.75;2.00;;;5.00;99.90;;;;;;5092742;28;20678;-62
2021/12/02 07:28:41;;;;;;;3.97;2.35;;;5.10;99.90;;;;;;5092399;28;20544;-62
2021/12/02 07:31:07;;;;;;;4.35;2.30;;;5.10;99.90;;;;;;5092619;28;20176;-62
2021/12/02 07:33:38;;;;;;;3.92;2.00;;;5.10;99.90;;;;;;5092423;28;20180;-62
2021/12/02 07:36:04;;;;;;;2.83;2.25;;;5.10;99.90;;;;;;5092468;28;20192;-62
2021/12/02 07:38:30;;;;;;;5.55;2.63;;;5.10;99.90;;;;;;5092256;28;20195;-62
2021/12/02 07:41:03;;;;;;;2.78;2.10;;;5.20;99.90;;;;;;5092394;28;20658;-62
2021/12/02 07:43:34;;;;;;;6.68;2.47;;;5.10;99.90;;;;;;5092294;28;20168;-62
2021/12/02 07:46:01;;;;;;;4.45;2.05;;;5.20;99.90;;;;;;5091077;28;20177;-62
2021/12/02 07:48:26;;;;;;;5.57;2.20;;;5.20;99.90;;;;;;5092019;28;20176;-61
2021/12/02 07:50:55;;;;;;;2.28;1.80;;;5.20;99.90;;;;;;5091967;28;20184;-62
2021/12/02 07:53:21;;;;;;;6.07;1.75;;;5.20;99.90;;;;;;5092136;28;20180;-62
2021/12/02 07:55:50;;;;;;;3.50;2.13;;;5.20;99.90;;;;;;5090673;28;20243;-61
2021/12/02 07:58:17;;;;;;;3.03;2.33;;;5.10;99.90;;;;;;5092196;28;20618;-62
2021/12/02 08:00:42;;;;;;;1.58;1.48;;;5.20;99.90;;;;;;5091878;28;20218;-61
2021/12/02 08:03:10;;;;;;;4.20;1.83;;;5.20;99.90;;;;;;5092112;28;20180;-62
2021/12/02 08:05:37;;;;;;;2.45;1.58;;;5.20;99.90;;;;;;5091969;28;20176;-62
2021/12/02 08:08:03;;;;;;;1.83;1.63;;;5.20;99.90;;;;;;5091855;28;20188;-61
2021/12/02 08:10:29;;;;;;;5.15;2.97;;;5.20;99.90;;;;;;5091968;28;20168;-61
2021/12/02 08:12:56;;;;;;;3.55;2.58;;;5.20;99.90;;;;;;5091874;28;20663;-61
2021/12/02 08:15:25;;;;;;;14.80;3.25;;;5.20;99.90;;;;;;5091743;28;20707;-61
2021/12/02 08:17:52;;;;;;;2.50;1.70;;;5.20;99.90;;;;;;5091985;28;20259;-61
2021/12/02 08:20:19;;;;;;;3.40;2.10;;;5.20;99.90;;;;;;5091797;28;20191;-61
2021/12/02 08:22:45;;;;;;;2.53;1.92;;;5.20;99.90;;;;;;5091773;28;20203;-61
2021/12/02 08:25:12;;;;;;;4.07;2.00;;;5.20;99.90;;;;;;5091791;28;20195;-61
2021/12/02 08:27:38;;;;;;;8.23;2.22;;;5.20;99.90;;;;;;5091696;28;20631;-61
2021/12/02 08:30:05;;;;;;;2.13;1.80;;;5.20;99.90;;;;;;5091660;28;20233;-61
2021/12/02 08:32:31;;;;;;;7.13;1.90;;;5.20;99.90;;;;;;5091773;28;20666;-61
2021/12/02 08:34:59;;;;;;;25.13;4.47;;;5.20;99.90;;;;;;5091877;28;20179;-61
2021/12/02 08:37:27;;;;;;;7.85;2.40;;;5.20;99.90;;;;;;5091600;28;20646;-61
2021/12/02 08:39:54;;;;;;;11.13;3.72;;;5.20;99.90;;;;;;5091548;28;20184;-61
2021/12/02 08:42:21;;;;;;;5.28;2.60;;;5.20;99.90;;;;;;5091630;28;20242;-61
2021/12/02 08:44:49;;;;;;;18.88;3.45;;;5.20;99.90;;;;;;5091587;28;20164;-61
2021/12/02 08:47:15;;;;;;;7.35;2.80;;;5.10;99.90;;;;;;5091661;28;20198;-60
2021/12/02 08:49:41;;;;;;;2.83;1.50;;;5.10;99.90;;;;;;5091458;28;20647;-61
2021/12/02 08:52:06;;;;;;;10.88;2.05;;;5.00;99.90;;;;;;5091574;28;20176;-60
2021/12/02 08:54:32;;;;;;;2.10;0.90;;;4.90;99.90;;;;;;5091353;28;20235;-60
2021/12/02 08:56:58;;;;;;;2.05;0.60;;;4.70;99.90;;;;;;5091685;28;20715;-60
2021/12/02 08:59:23;;;;;;;8.98;1.23;;;4.60;99.90;;;;;;5091379;28;20180;-60
2021/12/02 09:01:49;;;;;;;0.20;0.20;;;4.50;99.90;;;;;;5094651;28;20709;-60
2021/12/02 09:04:14;;;;;;;1.77;0.63;;;4.40;99.90;;;;;;5095279;28;20168;-60
2021/12/02 09:06:40;;;;;;;1.60;0.43;;;4.30;99.90;;;;;;5095121;28;20188;-60
2021/12/02 09:09:06;;;;;;;0.43;0.40;;;4.20;99.90;;;;;;5095346;28;20229;-60
2021/12/02 09:11:33;;;;;;;0.50;0.45;;;4.20;99.90;;;;;;5095269;28;20245;-60
2021/12/02 09:14:01;;;;;;;0.88;0.60;;;4.10;99.90;;;;;;5095263;28;20178;-60
2021/12/02 09:16:29;;;;;;;2.05;0.90;;;4.10;99.90;;;;;;5095076;28;20172;-60
2021/12/02 09:18:55;;;;;;;0.60;0.60;;;4.10;99.90;;;;;;5093953;28;20176;-60
2021/12/02 09:21:21;;;;;;;2.13;1.27;;;4.10;99.90;;;;;;5094839;28;20218;-60
2021/12/02 09:23:47;;;;;;;2.33;1.10;;;4.10;99.90;;;;;;5094903;28;20176;-60
2021/12/02 09:26:13;;;;;;;3.20;1.45;;;4.10;99.90;;;;;;5094929;28;20180;-60
2021/12/02 09:28:39;;;;;;;2.25;1.08;;;4.10;99.90;;;;;;5094843;28;20180;-60
2021/12/02 09:31:04;;;;;;;2.15;1.50;;;4.10;99.90;;;;;;5094858;28;20174;-60
2021/12/02 09:33:30;;;;;;;3.53;1.42;;;4.10;99.90;;;;;;5094756;28;20168;-60
2021/12/02 09:35:56;;;;;;;2.92;1.25;;;4.20;99.90;;;;;;5094861;28;20176;-61
2021/12/02 09:38:22;;;;;;;1.27;1.13;;;4.20;99.90;;;;;;5094488;28;20164;-61
2021/12/02 09:40:47;;;;;;;2.72;1.17;;;4.30;99.90;;;;;;5094573;28;20227;-61
2021/12/02 09:43:14;;;;;;;3.17;2.10;;;4.40;99.90;;;;;;5094691;28;20546;-61
2021/12/02 09:45:41;;;;;;;12.73;3.05;;;4.50;99.90;;;;;;5094457;28;20202;-61
2021/12/02 09:48:09;;;;;;;24.55;2.85;;;4.60;99.90;;;;;;5094610;28;20523;-60
2021/12/02 09:50:38;;;;;;;3.78;1.90;;;4.60;99.90;;;;;;5094419;28;20265;-61
2021/12/02 09:53:07;;;;;;;7.30;2.55;;;4.70;99.90;;;;;;5094322;28;20184;-60
2021/12/02 09:58:10;;;;;;;6.78;2.40;;;4.90;99.90;;;;;;5094661;28;20792;-61
2021/12/02 10:00:39;;;;;;;8.95;2.70;;;5.00;99.90;;;;;;5094199;28;20249;-61
2021/12/02 10:03:16;;;;;;;17.23;4.72;;;5.00;99.90;;;;;;5094237;28;20233;-61
2021/12/02 10:05:55;;;;;;;19.85;5.60;;;5.10;99.90;;;;;;5094104;28;20168;-60
2021/12/02 10:08:28;;;;;;;9.88;2.90;;;5.20;99.90;;;;;;5094055;28;20221;-60
2021/12/02 10:10:57;;;;;;;37.03;5.70;;;5.20;99.90;;;;;;5094148;28;20263;-61
2021/12/02 10:16:32;;;;;;;19.25;4.70;;;5.20;99.90;;;;;;5094126;28;20215;-60
2021/12/02 10:21:38;;;;;;;18.63;4.68;;;5.30;99.90;;;;;;5093762;28;20208;-60
2021/12/02 10:24:10;;;;;;;20.92;4.53;;;5.40;99.90;;;;;;5093730;28;20179;-60
2021/12/02 10:26:43;;;;;;;9.02;2.55;;;5.40;99.90;;;;;;5093589;28;20203;-60
2021/12/02 10:29:27;;;;;;;3.67;2.45;;;5.30;99.90;;;;;;5093781;28;20183;-61
2021/12/02 10:32:12;;;;;;;20.40;5.07;;;5.40;99.90;;;;;;5093871;28;20171;-60
2021/12/02 10:34:52;;;;;;;30.88;9.52;;;5.40;99.90;;;;;;5093620;28;20175;-60
2021/12/02 10:37:19;;;;;;;91.45;29.75;;;5.50;99.90;;;;;;5092260;28;20547;-61
2021/12/02 10:40:05;;;;;;;21.23;7.95;;;5.60;99.90;;;;;;5093090;28;20681;-60
2021/12/02 10:42:32;;;;;;;10.05;6.38;;;5.60;99.90;;;;;;5093327;28;20643;-61
2021/12/02 10:45:02;;;;;;;7.90;4.35;;;5.60;99.90;;;;;;5093505;28;20259;-60
2021/12/02 10:47:28;;;;;;;9.70;5.72;;;5.60;99.90;;;;;;5093427;28;20221;-61
2021/12/02 10:50:07;;;;;;;8.27;4.93;;;5.70;99.90;;;;;;5093264;28;20209;-61
2021/12/02 10:52:34;;;;;;;3.60;2.80;;;5.80;99.90;;;;;;5092883;28;20179;-60
2021/12/02 10:55:22;;;;;;;4.05;2.10;;;6.00;99.90;;;;;;5091889;28;20259;-61
2021/12/02 10:57:50;;;;;;;2.88;1.90;;;6.00;99.90;;;;;;5072840;28;20699;-61
2021/12/02 11:00:19;;;;;;;4.75;1.83;;;6.10;99.90;;;;;;5082779;28;20179;-61
2021/12/02 11:02:48;;;;;;;2.20;1.55;;;6.10;99.90;;;;;;5092974;28;20199;-61
2021/12/02 11:05:22;;;;;;;1.77;1.30;;;6.10;99.90;;;;;;5093125;28;20311;-61
2021/12/02 11:08:15;;;;;;;2.60;2.40;;;6.10;99.90;;;;;;5093088;28;20173;-61
2021/12/02 11:10:43;;;;;;;1.83;1.70;;;6.10;99.90;;;;;;5093274;28;20267;-63
2021/12/02 11:13:10;;;;;;;5.45;1.75;;;6.00;99.90;;;;;;5097305;28;20309;-64
2021/12/02 11:15:39;;;;;;;2.65;1.63;;;6.10;99.90;;;;;;5092800;28;20259;-62
2021/12/02 11:18:07;;;;;;;2.80;1.42;;;6.20;99.90;;;;;;5092861;28;20179;-62
2021/12/02 11:20:37;;;;;;;3.60;1.83;;;6.30;99.90;;;;;;5095242;28;20196;-63
2021/12/02 11:23:29;;;;;;;3.80;2.10;;;6.40;99.90;;;;;;5108698;28;20191;-63
2021/12/02 11:25:57;;;;;;;8.30;2.63;;;6.30;99.90;;;;;;5110760;28;20293;-64
2021/12/02 11:28:25;;;;;;;14.60;7.30;;;6.40;99.90;;;;;;5112899;28;20199;-62
2021/12/02 11:30:51;;;;;;;3.83;2.60;;;6.50;99.90;;;;;;5092342;28;20507;-60
2021/12/02 11:33:19;;;;;;;4.28;2.45;;;6.60;99.90;;;;;;5092114;28;20192;-62
2021/12/02 11:35:47;;;;;;;4.47;2.53;;;6.70;99.90;;;;;;5092102;28;20529;-62
2021/12/02 11:38:21;;;;;;;2.85;1.35;;;6.70;99.90;;;;;;5092303;28;20168;-62
2021/12/02 11:40:50;;;;;;;2.83;1.80;;;6.60;99.90;;;;;;5092446;28;20192;-62
2021/12/02 11:43:23;;;;;;;2.13;1.90;;;6.50;99.90;;;;;;5092457;28;20186;-62
2021/12/02 11:45:50;;;;;;;2.72;1.45;;;6.40;99.90;;;;;;5092284;28;20176;-61
2021/12/02 11:48:22;;;;;;;3.30;1.90;;;6.20;99.90;;;;;;5092312;28;20172;-62
2021/12/02 11:50:50;;;;;;;1.77;1.40;;;6.00;99.90;;;;;;5090859;28;20172;-61
2021/12/02 11:53:21;;;;;;;1.60;1.30;;;5.90;99.90;;;;;;5092233;28;20203;-61
2021/12/02 11:56:08;;;;;;;1.73;1.30;;;5.90;99.90;;;;;;5091991;28;20299;-61
2021/12/02 11:58:33;;;;;;;2.38;1.50;;;5.80;99.90;;;;;;5091629;28;20230;-61
2021/12/02 12:00:59;;;;;;;4.45;1.67;;;5.80;99.90;;;;;;5092096;28;20208;-61
2021/12/02 12:03:47;;;;;;;3.47;2.00;;;5.80;99.90;;;;;;5092056;28;20271;-61
2021/12/02 12:06:30;;;;;;;1.70;1.60;;;5.80;99.90;;;;;;5092132;28;20186;-62
2021/12/02 12:08:59;;;;;;;3.55;1.98;;;5.80;99.90;;;;;;5092172;28;20258;-61
2021/12/02 12:11:34;;;;;;;3.33;2.40;;;5.80;99.90;;;;;;5091946;28;20226;-61
2021/12/02 12:14:07;;;;;;;2.50;1.98;;;5.90;99.90;;;;;;5092050;28;20271;-61
2021/12/02 12:16:36;;;;;;;2.03;1.70;;;5.90;99.90;;;;;;5091992;28;20194;-61
2021/12/02 12:19:20;;;;;;;3.83;1.85;;;5.80;99.90;;;;;;5091706;28;20375;-61
2021/12/02 12:21:55;;;;;;;5.22;1.90;;;5.80;99.90;;;;;;5091779;28;20222;-62
2021/12/02 12:24:42;;;;;;;2.65;2.05;;;5.90;99.90;;;;;;5091600;28;20168;-61
2021/12/02 12:27:27;;;;;;;6.75;3.33;;;5.80;99.90;;;;;;5091745;28;20202;-61
2021/12/02 12:30:19;;;;;;;5.85;3.65;;;5.80;99.90;;;;;;5091679;28;20172;-61
2021/12/02 12:33:05;;;;;;;4.50;2.50;;;5.70;99.90;;;;;;5091478;28;20184;-62
2021/12/02 12:38:40;;;;;;;3.92;2.10;;;5.50;99.90;;;;;;5095666;28;20171;-62
2021/12/02 12:41:17;;;;;;;2.13;1.80;;;5.50;99.90;;;;;;5093847;28;20226;-62
2021/12/02 12:43:48;;;;;;;2.28;1.73;;;5.50;99.90;;;;;;5095447;28;20187;-62
2021/12/02 12:46:17;;;;;;;2.42;1.40;;;5.40;99.90;;;;;;5095785;28;20200;-63
2021/12/02 12:48:43;;;;;;;2.28;1.33;;;5.40;99.90;;;;;;5095358;28;20185;-62
2021/12/02 12:51:16;;;;;;;2.42;1.60;;;5.40;99.90;;;;;;5095672;28;20639;-62
2021/12/02 12:53:44;;;;;;;1.88;1.23;;;5.30;99.90;;;;;;5095320;28;20252;-62
2021/12/02 12:56:13;;;;;;;1.25;1.15;;;5.30;99.90;;;;;;5095280;28;20651;-62
2021/12/02 12:59:06;;;;;;;7.18;3.40;;;5.20;99.90;;;;;;5095385;28;20173;-62
2021/12/02 13:01:32;;;;;;;2.42;1.95;;;5.20;99.90;;;;;;5094466;28;20222;-62
2021/12/02 13:04:20;;;;;;;2.35;2.00;;;5.30;99.90;;;;;;5095427;28;20211;-62
2021/12/02 13:07:06;;;;;;;4.57;1.90;;;5.40;99.90;;;;;;5094997;28;20665;-62
2021/12/02 13:09:47;;;;;;;2.10;1.70;;;5.40;99.90;;;;;;5095200;28;20268;-62
2021/12/02 13:12:18;;;;;;;4.85;1.70;;;5.40;99.90;;;;;;5095264;28;20203;-62
2021/12/02 13:14:47;;;;;;;3.17;1.73;;;5.50;99.90;;;;;;5095098;28;20483;-62
2021/12/02 13:17:34;;;;;;;1.85;1.60;;;5.50;99.90;;;;;;5094990;28;20173;-62
2021/12/02 13:19:59;;;;;;;2.95;1.75;;;5.40;99.90;;;;;;5074637;28;20172;-62
2021/12/02 13:22:25;;;;;;;2.28;1.50;;;5.30;99.90;;;;;;5074605;28;20223;-62
2021/12/02 13:24:50;;;;;;;3.22;1.33;;;5.30;99.90;;;;;;5074330;28;20266;-63
2021/12/02 13:27:21;;;;;;;5.18;1.55;;;5.30;99.90;;;;;;5094334;28;20226;-63
2021/12/02 13:29:46;;;;;;;3.22;1.60;;;5.20;99.90;;;;;;5094652;28;20184;-63
2021/12/02 13:32:12;;;;;;;7.30;1.42;;;5.20;99.90;;;;;;5093875;28;20188;-63